Hayward Executive, CA

10:59 PM PDT on September 29, 2014 (GMT -0700)
San Carlos | Change Station
CLOSE
Current Station
Airport
Location: San Carlos,
Elevation: 3 ft
Nearby Weather Stations
4.4 Earthquake: South Dos Palos, California (1 day ago)  

Elev 3 ft 37.51 °N, 122.25 °W | Updated 4 minutes ago

Overcast
Overcast
63 °F
Feels Like 63 °F
N
7
Wind Variable Wind from West

Today
High -- | Low -- °F
--% Chance of Precip.
Yesterday
High -- | Low -- °F
Precip. -- in
7:02 AM 6:54 PM
Waxing Crescent, 33% visible
Pressure 30.01 in
Visibility 10.0 miles
Clouds Clear
Dew Point 55 °F
Humidity 77%
Rainfall 0.00 in
Snow Depth 0 in , 0 in , 0 in
UV 0 out of 12
Pollen 2.80 out of 12
Ozone Good
PM2.5 Good
Flu Activity Not available.
METAR KSQL 300555Z AUTO 26006KT 10SM CLR 17/13 A3001 RMK AO2

More Conditions Fewer Conditions

Pressure 30.01 in
Visibility 10.0 miles
Clouds Clear
Dew Point 55 °F
Humidity 77%
Rainfall 0.00 in
Snow Depth 0 in , 0 in , 0 in
UV 0 out of 12
Pollen 2.80 out of 12
Ozone Good
PM2.5 Good
Flu Activity Not available.
METAR KSQL 300555Z AUTO 26006KT 10SM CLR 17/13 A3001 RMK AO2

More Conditions Fewer Conditions

10-Day Weather Forecast

Almanac

Astronomy

Sep. 29, 2014 Rise Set
Actual Time 7:02 AM PDT 6:54 PM PDT
Civil Twilight 6:36 AM PDT 7:20 PM PDT
Nautical Twilight 6:05 AM PDT 7:50 PM PDT
Astronomical Twilight 5:35 AM PDT 8:21 PM PDT
Moon 12:14 PM PDT (9/29) 10:38 PM PDT (9/29)
Length of Visible Light 12h 44m
Length of Day
11h 52m
Tomorrow will be 2m 23s shorter.
Waxing Crescent, 33% of the Moon is Illuminated
Sep 30
Waxing Crescent
Oct 1
First Quarter
Oct 8
Full
Oct 15
Last Quarter
Oct 23
New

Yesterday's Extremes

State Highs State Lows

Community

WunderPhotos

Upload Photos

1,757,577 photos uploaded!

Nearby

Air Quality

  Air Quality AQ Index Pollutant
Yesterday Good
PM2.5
Yesterday Good
OZONE
Current Good
PM2.5
Current Good
OZONE
Monday Good
OZONE
Tuesday Good
PM2.5
Wednesday Good
PM2.5
Thursday Moderate
PM2.5
Friday Moderate
PM2.5
Saturday Moderate
PM2.5

Snow Depth

Station Depth Elevation
Horse Meadow 0 in 8631 ft
Independence Lake 0 in 8450 ft
Adin Mountain 0 in 6200 ft
Summit Meadow 0 in 9122 ft
Spratt Creek 1 in 6200 ft

Earthquake Activity

City Distance Mag. Time & Date
South Dos Palos, California 100 miles 2.5 9:18 PM PDT
2014-09-29
American Canyon, California 37 miles 2.6 12:17 AM PDT
2014-09-29
South Dos Palos, California 100 miles 2.7 8:46 PM PDT
2014-09-28
South Dos Palos, California 100 miles 4.4 1:45 PM PDT
2014-09-28
Minimum magnitude displayed is 2.5.

Coastal Water Temperatures

Place Temperature
No Stations Reporting

Nearby Weather Stations